Time;durP1;ratioP1;P1;durP2;ratioP2;P2;SDS_P1;SDS_P2;PMS_P1;PMS_P2;Temp;Humidity;BMP_temperature;BMP_pressure;BME280_temperature;BME280_humidity;BME280_pressure;Samples;Min_cycle;Max_cycle;Signal;HPM_P1;HPM_P2
2022/07/17 15:58:35;;;;;;;;;;;;;;;20.63;91.60;101961.22;5673616;23;19928;-83
2022/07/17 16:01:00;;;;;;;;;;;;;;;20.59;91.85;101953.72;4914114;29;19919;-83
2022/07/17 16:03:26;;;;;;;;;;;;;;;20.72;91.87;101958.94;4893380;29;19944;-83
2022/07/17 16:05:51;;;;;;;;;;;;;;;20.66;91.11;101957.16;4932820;29;19982;-83
2022/07/17 16:08:16;;;;;;;;;;;;;;;20.48;90.23;101955.34;4994920;23;19918;-83
2022/07/17 16:10:41;;;;;;;;;;;;;;;20.46;90.55;101948.44;4896157;29;19984;-84
2022/07/17 16:13:07;;;;;;;;;;;;;;;20.40;91.59;101944.78;4891916;29;20647;-84
2022/07/17 16:15:32;;;;;;;;;;;;;;;20.18;92.47;101941.78;4903691;29;20034;-84
2022/07/17 16:17:58;;;;;;;;;;;;;;;20.00;93.54;101944.59;4906416;29;19920;-83
2022/07/17 16:20:23;;;;;;;;;;;;;;;19.86;94.21;101941.22;4878915;29;19931;-82
2022/07/17 16:22:49;;;;;;;;;;;;;;;19.82;95.41;101948.22;4879047;29;19923;-81
2022/07/17 16:25:14;;;;;;;;;;;;;;;20.12;95.22;101939.97;4861876;29;20026;-81
2022/07/17 16:27:49;;;;;;;;;;;;;;;20.12;95.59;101934.53;4855492;29;20010;-80
2022/07/17 16:30:14;;;;;;;;;;;;;;;19.77;96.19;101946.22;4876855;29;19967;-79
2022/07/17 16:32:40;;;;;;;;;;;;;;;19.65;97.35;101939.88;4868773;29;20378;-79
2022/07/17 16:35:06;;;;;;;;;;;;;;;19.52;97.52;101943.59;4860647;29;19915;-79
2022/07/17 16:37:32;;;;;;;;;;;;;;;19.35;97.71;101937.94;4882092;29;20365;-79
2022/07/17 16:39:57;;;;;;;;;;;;;;;19.25;98.39;101935.75;4868605;29;19924;-79
2022/07/17 16:42:22;;;;;;;;;;;;;;;19.11;99.75;101933.44;4881460;29;20262;-79
2022/07/17 16:44:47;;;;;;;;;;;;;;;19.07;100.00;101937.66;4864655;29;19919;-79
2022/07/17 16:47:14;;;;;;;;;;;;;;;19.10;100.00;101929.84;4870485;29;20026;-79
2022/07/17 16:49:39;;;;;;;;;;;;;;;19.10;100.00;101938.03;4883374;29;19919;-79
2022/07/17 16:52:05;;;;;;;;;;;;;;;19.14;100.00;101928.34;4865653;29;19931;-79
2022/07/17 16:54:31;;;;;;;;;;;;;;;19.15;100.00;101927.28;4868433;29;20566;-80
2022/07/17 16:56:56;;;;;;;;;;;;;;;19.16;100.00;101926.19;4868359;29;19920;-79
2022/07/17 16:59:21;;;;;;;;;;;;;;;19.14;100.00;101927.47;4868454;29;20213;-79
2022/07/17 17:01:47;;;;;;;;;;;;;;;19.02;100.00;101921.97;4883607;29;20262;-80
2022/07/17 17:04:12;;;;;;;;;;;;;;;19.04;100.00;101928.03;4872717;29;20261;-79
2022/07/17 17:06:38;;;;;;;;;;;;;;;19.07;100.00;101930.28;4869327;29;19924;-79
2022/07/17 17:09:03;;;;;;;;;;;;;;;18.99;100.00;101931.44;4877906;29;19927;-80
2022/07/17 17:11:30;;;;;;;;;;;;;;;18.98;100.00;101943.41;4867795;29;19975;-79
2022/07/17 17:13:55;;;;;;;;;;;;;;;18.95;100.00;101935.69;4865850;29;19980;-79
2022/07/17 17:16:21;;;;;;;;;;;;;;;19.00;100.00;101935.00;4879713;29;19920;-79
2022/07/17 17:18:47;;;;;;;;;;;;;;;19.00;100.00;101933.09;4870220;29;19951;-79
2022/07/17 17:21:12;;;;;;;;;;;;;;;18.95;100.00;101923.94;4897668;29;19947;-79
2022/07/17 17:23:38;;;;;;;;;;;;;;;18.84;100.00;101931.00;4884570;29;19928;-79
2022/07/17 17:26:03;;;;;;;;;;;;;;;18.76;100.00;101926.66;4885211;29;19916;-80
2022/07/17 17:28:28;;;;;;;;;;;;;;;18.78;100.00;101926.44;4861976;29;20015;-79
2022/07/17 17:30:53;;;;;;;;;;;;;;;18.78;100.00;101931.91;4865373;29;19919;-79
2022/07/17 17:33:20;;;;;;;;;;;;;;;18.75;100.00;101924.19;4869701;29;19976;-80
2022/07/17 17:35:45;;;;;;;;;;;;;;;18.75;100.00;101924.19;4885623;29;19919;-80
2022/07/17 17:38:11;;;;;;;;;;;;;;;18.66;100.00;101930.94;4880635;29;19999;-79
2022/07/17 17:40:36;;;;;;;;;;;;;;;18.66;100.00;101928.22;4883028;29;19924;-79
2022/07/17 17:43:02;;;;;;;;;;;;;;;18.62;100.00;101929.72;4883906;29;19930;-79
2022/07/17 17:45:27;;;;;;;;;;;;;;;18.63;100.00;101923.22;4852143;29;19931;-80
2022/07/17 17:47:52;;;;;;;;;;;;;;;18.61;100.00;101925.31;4857304;29;19935;-80
2022/07/17 17:50:18;;;;;;;;;;;;;;;18.52;100.00;101919.34;4871097;29;19930;-78
2022/07/17 17:52:44;;;;;;;;;;;;;;;18.47;100.00;101922.72;4890786;29;19924;-79
2022/07/17 17:55:09;;;;;;;;;;;;;;;18.44;100.00;101925.06;4853762;29;20032;-79
2022/07/17 17:57:34;;;;;;;;;;;;;;;18.41;100.00;101918.19;4875217;29;19919;-80
2022/07/17 18:00:00;;;;;;;;;;;;;;;18.38;100.00;101918.66;4895278;29;19924;-79
2022/07/17 18:02:25;;;;;;;;;;;;;;;18.37;100.00;101929.75;4872497;29;19950;-78
2022/07/17 18:04:52;;;;;;;;;;;;;;;18.36;100.00;101912.56;4883944;29;19934;-79
2022/07/17 18:07:17;;;;;;;;;;;;;;;18.39;100.00;101922.19;4865761;29;19938;-79
2022/07/17 18:09:43;;;;;;;;;;;;;;;18.29;100.00;101923.53;4890047;29;20306;-79
2022/07/17 18:12:08;;;;;;;;;;;;;;;18.26;100.00;101934.88;4866438;29;20434;-79
2022/07/17 18:14:34;;;;;;;;;;;;;;;18.25;100.00;101929.66;4880105;29;19974;-79
2022/07/17 18:16:59;;;;;;;;;;;;;;;18.27;100.00;101924.81;4878852;29;19990;-79
2022/07/17 18:19:24;;;;;;;;;;;;;;;18.21;100.00;101929.28;4864180;29;19935;-78
2022/07/17 18:21:50;;;;;;;;;;;;;;;18.25;100.00;101930.50;4866150;29;19931;-78
2022/07/17 18:24:16;;;;;;;;;;;;;;;18.22;100.00;101933.66;4849498;29;19919;-79
2022/07/17 18:26:41;;;;;;;;;;;;;;;18.11;100.00;101939.81;4875035;29;19917;-79
2022/07/17 18:29:06;;;;;;;;;;;;;;;18.12;100.00;101933.31;4865628;29;19920;-78
2022/07/17 18:31:31;;;;;;;;;;;;;;;18.10;100.00;101927.25;4876544;29;19933;-78
2022/07/17 18:33:57;;;;;;;;;;;;;;;18.05;100.00;101930.66;4877042;29;19937;-78
2022/07/17 18:36:22;;;;;;;;;;;;;;;18.03;100.00;101929.19;4885364;29;20036;-78
2022/07/17 18:38:48;;;;;;;;;;;;;;;18.00;100.00;101935.09;4890994;29;20002;-79
2022/07/17 18:41:13;;;;;;;;;;;;;;;17.98;100.00;101923.56;4861761;29;19919;-78
2022/07/17 18:43:38;;;;;;;;;;;;;;;17.93;100.00;101923.41;4889529;29;20385;-78
2022/07/17 18:46:04;;;;;;;;;;;;;;;17.88;100.00;101920.50;4878444;29;19923;-78
2022/07/17 18:48:31;;;;;;;;;;;;;;;17.78;100.00;101923.72;4866880;29;20051;-78
2022/07/17 18:50:56;;;;;;;;;;;;;;;17.74;100.00;101920.56;4876383;29;19919;-78
2022/07/17 18:53:23;;;;;;;;;;;;;;;17.69;100.00;101925.84;4872458;29;19946;-80
2022/07/17 18:55:49;;;;;;;;;;;;;;;17.63;100.00;101925.88;4848462;29;20255;-79
2022/07/17 18:58:14;;;;;;;;;;;;;;;17.52;100.00;101928.25;4873022;29;20071;-79
2022/07/17 19:00:41;;;;;;;;;;;;;;;17.43;100.00;101923.28;4872430;29;19924;-79
2022/07/17 19:03:06;;;;;;;;;;;;;;;17.40;100.00;101924.53;4877446;29;20015;-79
2022/07/17 19:05:32;;;;;;;;;;;;;;;17.37;100.00;101923.09;4853625;29;19992;-79
2022/07/17 19:07:57;;;;;;;;;;;;;;;17.33;100.00;101921.84;4859576;29;20449;-79
2022/07/17 19:10:24;;;;;;;;;;;;;;;17.33;100.00;101929.19;4854786;29;19931;-79
2022/07/17 19:12:49;;;;;;;;;;;;;;;17.32;100.00;101932.97;4859705;29;19982;-78
2022/07/17 19:15:15;;;;;;;;;;;;;;;17.30;100.00;101937.78;4885970;29;19920;-79
2022/07/17 19:17:41;;;;;;;;;;;;;;;17.25;100.00;101938.44;4852201;29;20362;-79
2022/07/17 19:20:07;;;;;;;;;;;;;;;17.22;100.00;101938.00;4883346;29;20008;-79
2022/07/17 19:22:32;;;;;;;;;;;;;;;17.11;100.00;101934.06;4874263;29;19954;-80
2022/07/17 19:24:57;;;;;;;;;;;;;;;17.12;100.00;101930.34;4852188;29;19934;-79
2022/07/17 19:27:23;;;;;;;;;;;;;;;17.11;100.00;101925.91;4873209;29;19927;-79
2022/07/17 19:29:48;;;;;;;;;;;;;;;17.08;100.00;101932.63;4870197;29;19926;-79
2022/07/17 19:32:13;;;;;;;;;;;;;;;17.10;100.00;101935.97;4886894;29;19928;-79
2022/07/17 19:34:39;;;;;;;;;;;;;;;16.99;100.00;101923.06;4869821;29;19931;-80
2022/07/17 19:37:05;;;;;;;;;;;;;;;16.97;100.00;101935.19;4883077;29;19916;-79
2022/07/17 19:39:30;;;;;;;;;;;;;;;16.95;100.00;101937.28;4874248;29;19928;-79
2022/07/17 19:41:57;;;;;;;;;;;;;;;16.93;100.00;101932.06;4888578;29;19924;-80
2022/07/17 19:44:22;;;;;;;;;;;;;;;16.90;100.00;101933.31;4884130;29;20298;-80
2022/07/17 19:46:48;;;;;;;;;;;;;;;16.87;100.00;101935.63;4886223;29;20068;-80
2022/07/17 19:49:13;;;;;;;;;;;;;;;16.85;100.00;101929.56;4868570;29;19975;-81
2022/07/17 19:51:38;;;;;;;;;;;;;;;16.83;100.00;101927.06;4862902;29;19928;-79
2022/07/17 19:54:04;;;;;;;;;;;;;;;16.83;100.00;101927.06;4876606;29;19916;-80
2022/07/17 19:56:29;;;;;;;;;;;;;;;16.80;100.00;101924.78;4870017;29;19920;-81
2022/07/17 19:58:54;;;;;;;;;;;;;;;16.80;100.00;101929.38;4867305;29;19984;-82
2022/07/17 20:01:21;;;;;;;;;;;;;;;16.84;100.00;101927.91;4857782;29;19920;-81
2022/07/17 20:03:46;;;;;;;;;;;;;;;16.84;100.00;101926.00;4867188;29;20322;-81
2022/07/17 20:06:12;;;;;;;;;;;;;;;16.87;100.00;101925.59;4880822;29;19976;-79
2022/07/17 20:08:38;;;;;;;;;;;;;;;16.83;100.00;101927.06;4891414;29;19932;-79
2022/07/17 20:11:05;;;;;;;;;;;;;;;16.81;100.00;101926.44;4897162;29;19976;-79
2022/07/17 20:13:30;;;;;;;;;;;;;;;16.78;100.00;101921.41;4876326;29;20006;-79
2022/07/17 20:15:57;;;;;;;;;;;;;;;16.80;100.00;101927.50;4879969;29;20037;-79
2022/07/17 20:18:22;;;;;;;;;;;;;;;16.74;100.00;101925.59;4872073;29;19963;-79
2022/07/17 20:20:47;;;;;;;;;;;;;;;16.72;100.00;101930.41;4867921;29;20484;-79
2022/07/17 20:23:15;;;;;;;;;;;;;;;16.66;100.00;101923.94;4868979;29;19920;-79
2022/07/17 20:25:43;;;;;;;;;;;;;;;16.67;100.00;101913.91;4887979;29;19916;-79
2022/07/17 20:28:08;;;;;;;;;;;;;;;16.68;100.00;101923.72;4881014;29;19919;-79
2022/07/17 20:30:36;;;;;;;;;;;;;;;16.67;100.00;101922.88;4880087;29;20692;-79
2022/07/17 20:33:01;;;;;;;;;;;;;;;16.68;100.00;101913.69;4890506;29;19988;-79
2022/07/17 20:35:26;;;;;;;;;;;;;;;16.68;100.00;101921.00;4887059;29;19923;-79
2022/07/17 20:37:52;;;;;;;;;;;;;;;16.69;100.00;101914.53;4894684;29;20323;-79
2022/07/17 20:40:17;;;;;;;;;;;;;;;16.66;100.00;101923.13;4878199;29;20338;-80
2022/07/17 20:42:43;;;;;;;;;;;;;;;16.66;100.00;101918.50;4895924;29;20373;-79
2022/07/17 20:45:08;;;;;;;;;;;;;;;16.66;100.00;101914.97;4892001;29;19920;-79
2022/07/17 20:47:33;;;;;;;;;;;;;;;16.67;100.00;101917.44;4888742;29;19984;-78
2022/07/17 20:49:58;;;;;;;;;;;;;;;16.63;100.00;101918.94;4885085;29;19983;-79
2022/07/17 20:52:24;;;;;;;;;;;;;;;16.68;100.00;101904.69;4887607;29;19991;-81
2022/07/17 20:54:49;;;;;;;;;;;;;;;16.68;100.00;101904.69;4893385;29;19923;-78
2022/07/17 20:57:14;;;;;;;;;;;;;;;16.73;100.00;101906.78;4891530;29;19978;-79
2022/07/17 20:59:39;;;;;;;;;;;;;;;16.71;100.00;101906.97;4901385;29;19920;-78
2022/07/17 21:02:05;;;;;;;;;;;;;;;16.71;100.00;101903.44;4908710;29;19991;-78
2022/07/17 21:04:30;;;;;;;;;;;;;;;16.67;100.00;101903.88;4898668;29;19924;-78
2022/07/17 21:06:55;;;;;;;;;;;;;;;16.69;100.00;101914.53;4885866;29;19931;-79
2022/07/17 21:09:20;;;;;;;;;;;;;;;16.70;100.00;101910.75;4898030;29;19923;-78
2022/07/17 21:11:47;;;;;;;;;;;;;;;16.73;100.00;101912.22;4912799;29;19923;-78
2022/07/17 21:14:12;;;;;;;;;;;;;;;16.71;100.00;101909.69;4913115;29;19950;-78
2022/07/17 21:16:37;;;;;;;;;;;;;;;16.70;100.00;101912.66;4906676;29;20336;-78
2022/07/17 21:19:03;;;;;;;;;;;;;;;16.71;100.00;101906.97;4895473;29;20411;-79
2022/07/17 21:21:29;;;;;;;;;;;;;;;16.73;100.00;101904.91;4886564;29;20726;-78
2022/07/17 21:23:54;;;;;;;;;;;;;;;16.72;100.00;101900.53;4888149;29;20003;-78
2022/07/17 21:26:20;;;;;;;;;;;;;;;16.71;100.00;101898.84;4888829;29;20023;-78
2022/07/17 21:28:45;;;;;;;;;;;;;;;16.71;100.00;101896.13;4898956;29;19919;-78
2022/07/17 21:31:10;;;;;;;;;;;;;;;16.71;100.00;101887.97;4902196;29;20024;-79
2022/07/17 21:33:36;;;;;;;;;;;;;;;16.74;100.00;101881.28;4901615;29;19923;-79
2022/07/17 21:36:04;;;;;;;;;;;;;;;16.76;100.00;101871.06;4893894;29;20346;-79
2022/07/17 21:38:29;;;;;;;;;;;;;;;16.72;100.00;101878.78;4887576;29;19994;-80
2022/07/17 21:40:57;;;;;;;;;;;;;;;16.74;100.00;101882.09;4893761;29;20342;-79
2022/07/17 21:43:23;;;;;;;;;;;;;;;16.75;100.00;101885.69;4890387;29;19924;-79
2022/07/17 21:45:48;;;;;;;;;;;;;;;16.76;100.00;101888.19;4892863;29;19931;-79
2022/07/17 21:48:13;;;;;;;;;;;;;;;16.76;100.00;101887.38;4897376;29;20404;-79
2022/07/17 21:50:38;;;;;;;;;;;;;;;16.75;100.00;101889.22;4900337;29;19927;-78
2022/07/17 21:53:04;;;;;;;;;;;;;;;16.75;100.00;101889.22;4881162;29;19942;-79
2022/07/17 21:55:29;;;;;;;;;;;;;;;16.76;100.00;101890.91;4897995;29;19928;-79
2022/07/17 21:57:54;;;;;;;;;;;;;;;16.77;100.00;101892.56;4887944;29;20002;-79
2022/07/17 22:00:21;;;;;;;;;;;;;;;16.76;100.00;101888.19;4882754;29;20303;-79
2022/07/17 22:02:47;;;;;;;;;;;;;;;16.74;100.00;101886.72;4897933;29;19923;-79
2022/07/17 22:05:13;;;;;;;;;;;;;;;16.71;100.00;101887.13;4887951;29;19939;-79
2022/07/17 22:07:38;;;;;;;;;;;;;;;16.72;100.00;101889.66;4867127;29;19928;-79
2022/07/17 22:10:04;;;;;;;;;;;;;;;16.75;100.00;101886.50;4898992;29;19923;-79
2022/07/17 22:12:30;;;;;;;;;;;;;;;16.76;100.00;101884.66;4891623;29;20372;-79
2022/07/17 22:14:55;;;;;;;;;;;;;;;16.77;100.00;101880.88;4914692;29;20009;-79
2022/07/17 22:17:21;;;;;;;;;;;;;;;16.77;100.00;101881.69;4920713;29;19947;-79
2022/07/17 22:19:47;;;;;;;;;;;;;;;16.78;100.00;101879.81;4920626;29;19922;-79
2022/07/17 22:22:12;;;;;;;;;;;;;;;16.78;100.00;101877.94;4901976;29;19919;-78
2022/07/17 22:24:38;;;;;;;;;;;;;;;16.78;100.00;101877.94;4893579;29;19942;-78
2022/07/17 22:27:03;;;;;;;;;;;;;;;16.80;100.00;101875.00;4907828;29;19938;-79
2022/07/17 22:29:30;;;;;;;;;;;;;;;16.80;100.00;101872.28;4895987;29;19934;-79
2022/07/17 22:31:55;;;;;;;;;;;;;;;16.81;100.00;101877.50;4882123;29;20356;-79
2022/07/17 22:34:20;;;;;;;;;;;;;;;16.81;100.00;101872.06;4893557;29;19931;-79
2022/07/17 22:36:45;;;;;;;;;;;;;;;16.78;100.00;101871.66;4868611;29;19932;-79
2022/07/17 22:39:10;;;;;;;;;;;;;;;16.78;100.00;101869.78;4906117;29;19923;-79
2022/07/17 22:41:36;;;;;;;;;;;;;;;16.79;100.00;101879.63;4917194;29;19930;-79
2022/07/17 22:44:01;;;;;;;;;;;;;;;16.78;100.00;101877.94;4903097;29;19926;-79
2022/07/17 22:46:26;;;;;;;;;;;;;;;16.81;100.00;101877.50;4887272;29;19954;-80
2022/07/17 22:48:51;;;;;;;;;;;;;;;16.82;100.00;101873.75;4897708;29;20080;-79
2022/07/17 22:51:17;;;;;;;;;;;;;;;16.81;100.00;101866.63;4904800;29;19926;-79
2022/07/17 22:53:42;;;;;;;;;;;;;;;16.82;100.00;101872.91;4900861;29;19927;-79
2022/07/17 22:56:08;;;;;;;;;;;;;;;16.80;100.00;101867.69;4916681;29;19919;-79
2022/07/17 22:58:33;;;;;;;;;;;;;;;16.82;100.00;101871.03;4916854;29;19923;-79
2022/07/17 23:00:59;;;;;;;;;;;;;;;16.81;100.00;101874.78;4900916;29;20346;-79
2022/07/17 23:03:24;;;;;;;;;;;;;;;16.82;100.00;101873.75;4895646;29;19923;-79
2022/07/17 23:05:49;;;;;;;;;;;;;;;16.83;100.00;101875.41;4884394;29;19931;-79
2022/07/17 23:08:15;;;;;;;;;;;;;;;16.85;100.00;101867.91;4901019;29;19924;-79
2022/07/17 23:10:40;;;;;;;;;;;;;;;16.85;100.00;101867.91;4894725;29;19924;-79
2022/07/17 23:13:05;;;;;;;;;;;;;;;16.86;100.00;101872.28;4889743;29;19923;-79
2022/07/17 23:15:31;;;;;;;;;;;;;;;16.88;100.00;101867.44;4874837;29;19983;-79
2022/07/17 23:17:56;;;;;;;;;;;;;;;16.87;100.00;101873.94;4894374;29;20365;-79
2022/07/17 23:20:21;;;;;;;;;;;;;;;16.87;100.00;101870.38;4892231;29;20067;-79
2022/07/17 23:22:46;;;;;;;;;;;;;;;16.88;100.00;101878.31;4898864;29;20007;-79
2022/07/17 23:25:12;;;;;;;;;;;;;;;16.89;100.00;101876.44;4901613;29;20480;-79
2022/07/17 23:27:37;;;;;;;;;;;;;;;16.89;100.00;101874.56;4889793;29;20487;-79
2022/07/17 23:30:04;;;;;;;;;;;;;;;16.90;100.00;101880.81;4890446;29;20010;-79
2022/07/17 23:32:36;;;;;;;;;;;;;;;16.89;100.00;101874.56;4895274;29;20269;-79
2022/07/17 23:35:04;;;;;;;;;;;;;;;16.90;100.00;101878.13;4893370;29;19923;-79
2022/07/17 23:37:29;;;;;;;;;;;;;;;16.93;100.00;101876.84;4883769;29;19915;-79
2022/07/17 23:39:55;;;;;;;;;;;;;;;16.90;100.00;101873.50;4905680;29;20305;-78
2022/07/17 23:42:22;;;;;;;;;;;;;;;16.90;100.00;101868.06;4886938;29;19931;-79
2022/07/17 23:44:47;;;;;;;;;;;;;;;16.92;100.00;101867.88;4872714;29;19920;-79
2022/07/17 23:47:13;;;;;;;;;;;;;;;16.93;100.00;101868.69;4909546;29;20412;-80
2022/07/17 23:49:38;;;;;;;;;;;;;;;16.91;100.00;101867.00;4899624;29;19991;-78
2022/07/17 23:52:04;;;;;;;;;;;;;;;16.90;100.00;101870.78;4908553;29;19953;-79
2022/07/17 23:54:29;;;;;;;;;;;;;;;16.91;100.00;101874.34;4867865;29;19927;-79
2022/07/17 23:56:54;;;;;;;;;;;;;;;16.91;100.00;101872.44;4867577;29;20007;-79
2022/07/17 23:59:20;;;;;;;;;;;;;;;16.94;100.00;101867.63;4898434;29;19919;-79
